sensor_id;sensor_type;location;lat;lon;timestamp;P1;P2;P0
23240;PMS7003;11789;53.482;9.862;2022-08-23T00:01:59;7.00;5.00;4.33
23240;PMS7003;11789;53.482;9.862;2022-08-23T00:04:28;5.25;5.25;4.50
23240;PMS7003;11789;53.482;9.862;2022-08-23T00:07:02;6.75;6.75;6.00
23240;PMS7003;11789;53.482;9.862;2022-08-23T00:09:28;6.50;5.75;4.25
23240;PMS7003;11789;53.482;9.862;2022-08-23T00:12:02;5.33;5.33;5.00
23240;PMS7003;11789;53.482;9.862;2022-08-23T00:14:29;4.33;4.33;4.00
23240;PMS7003;11789;53.482;9.862;2022-08-23T00:16:57;5.50;5.50;4.50
23240;PMS7003;11789;53.482;9.862;2022-08-23T00:19:23;4.67;4.67;4.33
23240;PMS7003;11789;53.482;9.862;2022-08-23T00:21:50;5.75;5.75;5.00
23240;PMS7003;11789;53.482;9.862;2022-08-23T00:24:19;6.00;6.00;4.33
23240;PMS7003;11789;53.482;9.862;2022-08-23T00:27:06;6.25;6.00;5.00
23240;PMS7003;11789;53.482;9.862;2022-08-23T00:29:50;7.00;6.50;5.00
23240;PMS7003;11789;53.482;9.862;2022-08-23T00:32:22;5.00;5.00;4.50
23240;PMS7003;11789;53.482;9.862;2022-08-23T00:34:56;5.25;5.25;4.25
23240;PMS7003;11789;53.482;9.862;2022-08-23T00:37:23;8.25;8.25;6.75
23240;PMS7003;11789;53.482;9.862;2022-08-23T00:39:52;5.00;5.00;4.00
23240;PMS7003;11789;53.482;9.862;2022-08-23T00:45:32;6.00;6.00;5.50
23240;PMS7003;11789;53.482;9.862;2022-08-23T00:48:22;5.00;5.00;3.67
23240;PMS7003;11789;53.482;9.862;2022-08-23T00:53:31;5.00;5.00;4.50
23240;PMS7003;11789;53.482;9.862;2022-08-23T00:56:03;5.25;5.25;5.00
23240;PMS7003;11789;53.482;9.862;2022-08-23T00:58:31;6.00;6.00;5.25
23240;PMS7003;11789;53.482;9.862;2022-08-23T01:00:57;11.00;7.00;6.00
23240;PMS7003;11789;53.482;9.862;2022-08-23T01:03:25;7.00;7.00;6.00
23240;PMS7003;11789;53.482;9.862;2022-08-23T01:05:57;7.00;6.00;5.25
23240;PMS7003;11789;53.482;9.862;2022-08-23T01:08:27;7.00;7.00;6.00
23240;PMS7003;11789;53.482;9.862;2022-08-23T01:10:57;8.00;8.00;6.00
23240;PMS7003;11789;53.482;9.862;2022-08-23T01:13:32;7.00;7.00;5.75
23240;PMS7003;11789;53.482;9.862;2022-08-23T01:16:27;6.75;6.25;5.00
23240;PMS7003;11789;53.482;9.862;2022-08-23T01:19:01;6.00;6.00;4.50
23240;PMS7003;11789;53.482;9.862;2022-08-23T01:21:43;5.75;5.75;5.00
23240;PMS7003;11789;53.482;9.862;2022-08-23T01:24:13;6.00;6.00;5.75
23240;PMS7003;11789;53.482;9.862;2022-08-23T01:26:42;6.00;6.00;5.00
23240;PMS7003;11789;53.482;9.862;2022-08-23T01:29:08;7.00;6.00;5.00
23240;PMS7003;11789;53.482;9.862;2022-08-23T01:31:34;7.00;7.00;6.00
23240;PMS7003;11789;53.482;9.862;2022-08-23T01:34:02;5.00;5.00;4.00
23240;PMS7003;11789;53.482;9.862;2022-08-23T01:36:31;8.75;7.75;6.50
23240;PMS7003;11789;53.482;9.862;2022-08-23T01:39:00;5.75;5.75;5.00
23240;PMS7003;11789;53.482;9.862;2022-08-23T01:41:26;6.25;6.25;5.00
23240;PMS7003;11789;53.482;9.862;2022-08-23T01:43:52;6.50;6.50;6.00
23240;PMS7003;11789;53.482;9.862;2022-08-23T01:46:18;7.00;7.00;6.00
23240;PMS7003;11789;53.482;9.862;2022-08-23T01:48:49;7.25;7.00;6.00
23240;PMS7003;11789;53.482;9.862;2022-08-23T01:51:16;7.25;6.25;6.00
23240;PMS7003;11789;53.482;9.862;2022-08-23T01:53:43;7.25;7.25;6.00
23240;PMS7003;11789;53.482;9.862;2022-08-23T01:56:10;7.25;7.25;5.25
23240;PMS7003;11789;53.482;9.862;2022-08-23T01:58:37;10.25;8.25;7.00
23240;PMS7003;11789;53.482;9.862;2022-08-23T02:01:03;8.75;6.75;5.75
23240;PMS7003;11789;53.482;9.862;2022-08-23T02:03:30;8.25;6.75;6.25
23240;PMS7003;11789;53.482;9.862;2022-08-23T02:05:57;9.50;6.75;6.00
23240;PMS7003;11789;53.482;9.862;2022-08-23T02:08:22;7.25;7.25;6.00
23240;PMS7003;11789;53.482;9.862;2022-08-23T02:11:10;8.50;8.50;6.50
23240;PMS7003;11789;53.482;9.862;2022-08-23T02:13:39;8.00;8.00;7.00
23240;PMS7003;11789;53.482;9.862;2022-08-23T02:16:06;9.00;7.25;6.25
23240;PMS7003;11789;53.482;9.862;2022-08-23T02:18:32;9.50;6.75;5.00
23240;PMS7003;11789;53.482;9.862;2022-08-23T02:20:57;11.25;9.00;8.00
23240;PMS7003;11789;53.482;9.862;2022-08-23T02:23:24;7.75;7.75;7.00
23240;PMS7003;11789;53.482;9.862;2022-08-23T02:25:50;9.25;8.00;7.00
23240;PMS7003;11789;53.482;9.862;2022-08-23T02:28:17;6.50;6.00;5.25
23240;PMS7003;11789;53.482;9.862;2022-08-23T02:30:44;9.00;9.00;7.00
23240;PMS7003;11789;53.482;9.862;2022-08-23T02:33:10;7.25;7.25;6.25
23240;PMS7003;11789;53.482;9.862;2022-08-23T02:35:36;10.50;9.00;7.25
23240;PMS7003;11789;53.482;9.862;2022-08-23T02:38:06;8.00;8.00;6.50
23240;PMS7003;11789;53.482;9.862;2022-08-23T02:40:33;8.75;7.50;6.00
23240;PMS7003;11789;53.482;9.862;2022-08-23T02:43:00;7.50;7.50;6.50
23240;PMS7003;11789;53.482;9.862;2022-08-23T02:45:27;8.50;8.50;6.75
23240;PMS7003;11789;53.482;9.862;2022-08-23T02:47:53;8.50;8.50;7.00
23240;PMS7003;11789;53.482;9.862;2022-08-23T02:50:19;7.75;7.75;7.00
23240;PMS7003;11789;53.482;9.862;2022-08-23T02:52:45;7.00;7.00;6.25
23240;PMS7003;11789;53.482;9.862;2022-08-23T02:55:12;7.00;7.00;6.25
23240;PMS7003;11789;53.482;9.862;2022-08-23T02:57:37;8.50;8.50;7.00
23240;PMS7003;11789;53.482;9.862;2022-08-23T03:00:04;10.00;10.00;8.00
23240;PMS7003;11789;53.482;9.862;2022-08-23T03:02:32;9.50;9.50;7.50
23240;PMS7003;11789;53.482;9.862;2022-08-23T03:04:57;8.25;8.25;7.00
23240;PMS7003;11789;53.482;9.862;2022-08-23T03:07:23;8.25;8.25;7.75
23240;PMS7003;11789;53.482;9.862;2022-08-23T03:09:48;7.25;7.25;6.00
23240;PMS7003;11789;53.482;9.862;2022-08-23T03:12:14;8.75;8.75;8.00
23240;PMS7003;11789;53.482;9.862;2022-08-23T03:14:39;10.25;10.25;8.00
23240;PMS7003;11789;53.482;9.862;2022-08-23T03:17:05;10.00;10.00;8.00
23240;PMS7003;11789;53.482;9.862;2022-08-23T03:19:32;8.00;8.00;6.50
23240;PMS7003;11789;53.482;9.862;2022-08-23T03:21:57;8.00;8.00;7.25
23240;PMS7003;11789;53.482;9.862;2022-08-23T03:24:23;11.00;9.25;7.25
23240;PMS7003;11789;53.482;9.862;2022-08-23T03:26:48;8.75;8.50;7.25
23240;PMS7003;11789;53.482;9.862;2022-08-23T03:29:14;8.75;8.75;8.00
23240;PMS7003;11789;53.482;9.862;2022-08-23T03:31:39;5.75;5.75;5.00
23240;PMS7003;11789;53.482;9.862;2022-08-23T03:34:05;10.00;10.00;7.25
23240;PMS7003;11789;53.482;9.862;2022-08-23T03:36:31;10.00;10.00;7.00
23240;PMS7003;11789;53.482;9.862;2022-08-23T03:38:57;9.00;9.00;8.00
23240;PMS7003;11789;53.482;9.862;2022-08-23T03:41:24;12.50;11.25;9.00
23240;PMS7003;11789;53.482;9.862;2022-08-23T03:43:50;9.25;9.00;8.00
23240;PMS7003;11789;53.482;9.862;2022-08-23T03:46:17;9.00;9.00;8.00
23240;PMS7003;11789;53.482;9.862;2022-08-23T03:48:54;9.75;9.75;8.50
23240;PMS7003;11789;53.482;9.862;2022-08-23T03:51:22;11.00;11.00;8.25
23240;PMS7003;11789;53.482;9.862;2022-08-23T03:53:48;10.25;10.25;8.25
23240;PMS7003;11789;53.482;9.862;2022-08-23T03:58:49;9.75;9.00;7.00
23240;PMS7003;11789;53.482;9.862;2022-08-23T04:01:15;9.00;9.00;7.75
23240;PMS7003;11789;53.482;9.862;2022-08-23T04:03:40;10.50;10.50;9.00
23240;PMS7003;11789;53.482;9.862;2022-08-23T04:06:06;10.00;10.00;8.50
23240;PMS7003;11789;53.482;9.862;2022-08-23T04:08:32;10.25;10.25;8.00
23240;PMS7003;11789;53.482;9.862;2022-08-23T04:10:58;12.75;11.00;8.75
23240;PMS7003;11789;53.482;9.862;2022-08-23T04:13:23;12.00;10.50;8.00
23240;PMS7003;11789;53.482;9.862;2022-08-23T04:15:49;10.50;10.50;9.00
23240;PMS7003;11789;53.482;9.862;2022-08-23T04:18:15;10.75;10.75;8.50
23240;PMS7003;11789;53.482;9.862;2022-08-23T04:20:40;10.75;9.25;6.75
23240;PMS7003;11789;53.482;9.862;2022-08-23T04:23:07;13.75;12.25;10.25
23240;PMS7003;11789;53.482;9.862;2022-08-23T04:25:32;10.25;10.25;8.00
23240;PMS7003;11789;53.482;9.862;2022-08-23T04:27:58;11.75;10.75;8.50
23240;PMS7003;11789;53.482;9.862;2022-08-23T04:30:24;12.75;11.50;9.75
23240;PMS7003;11789;53.482;9.862;2022-08-23T04:32:53;10.25;10.25;9.25
23240;PMS7003;11789;53.482;9.862;2022-08-23T04:35:19;11.00;11.00;7.25
23240;PMS7003;11789;53.482;9.862;2022-08-23T04:37:44;9.50;9.50;8.50
23240;PMS7003;11789;53.482;9.862;2022-08-23T04:40:10;10.00;10.00;9.00
23240;PMS7003;11789;53.482;9.862;2022-08-23T04:42:55;11.50;10.25;8.75
23240;PMS7003;11789;53.482;9.862;2022-08-23T04:45:21;12.25;12.25;9.50
23240;PMS7003;11789;53.482;9.862;2022-08-23T04:47:46;12.00;10.75;9.25
23240;PMS7003;11789;53.482;9.862;2022-08-23T04:50:12;12.75;11.25;8.50
23240;PMS7003;11789;53.482;9.862;2022-08-23T04:52:38;12.25;12.25;10.00
23240;PMS7003;11789;53.482;9.862;2022-08-23T04:55:03;12.50;12.25;10.75
23240;PMS7003;11789;53.482;9.862;2022-08-23T04:57:29;12.00;12.00;10.25
23240;PMS7003;11789;53.482;9.862;2022-08-23T04:59:55;13.25;13.25;10.75
23240;PMS7003;11789;53.482;9.862;2022-08-23T05:02:21;11.25;11.25;9.25
23240;PMS7003;11789;53.482;9.862;2022-08-23T05:04:46;10.50;10.50;9.50
23240;PMS7003;11789;53.482;9.862;2022-08-23T05:07:12;13.25;13.25;10.75
23240;PMS7003;11789;53.482;9.862;2022-08-23T05:09:39;11.75;11.75;10.25
23240;PMS7003;11789;53.482;9.862;2022-08-23T05:12:05;12.75;11.25;9.25
23240;PMS7003;11789;53.482;9.862;2022-08-23T05:14:30;11.50;11.25;10.00
23240;PMS7003;11789;53.482;9.862;2022-08-23T05:16:56;11.00;10.25;8.50
23240;PMS7003;11789;53.482;9.862;2022-08-23T05:19:21;12.50;12.50;10.25
23240;PMS7003;11789;53.482;9.862;2022-08-23T05:21:47;11.75;11.75;10.25
23240;PMS7003;11789;53.482;9.862;2022-08-23T05:24:12;11.75;11.75;9.75
23240;PMS7003;11789;53.482;9.862;2022-08-23T05:26:38;14.50;13.00;10.75
23240;PMS7003;11789;53.482;9.862;2022-08-23T05:29:03;11.50;11.50;10.00
23240;PMS7003;11789;53.482;9.862;2022-08-23T05:31:29;12.25;11.25;10.25
23240;PMS7003;11789;53.482;9.862;2022-08-23T05:33:55;16.75;14.25;12.00
23240;PMS7003;11789;53.482;9.862;2022-08-23T05:36:20;14.25;11.50;9.75
23240;PMS7003;11789;53.482;9.862;2022-08-23T05:38:49;13.25;13.25;11.25
23240;PMS7003;11789;53.482;9.862;2022-08-23T05:41:16;10.50;10.50;9.50
23240;PMS7003;11789;53.482;9.862;2022-08-23T05:43:43;13.25;13.25;10.50
23240;PMS7003;11789;53.482;9.862;2022-08-23T05:46:09;13.50;13.50;10.50
23240;PMS7003;11789;53.482;9.862;2022-08-23T05:48:38;14.50;11.75;9.50
23240;PMS7003;11789;53.482;9.862;2022-08-23T05:53:37;10.25;10.25;8.25
23240;PMS7003;11789;53.482;9.862;2022-08-23T05:58:43;14.00;14.00;10.25
23240;PMS7003;11789;53.482;9.862;2022-08-23T06:01:10;13.75;13.75;11.25
23240;PMS7003;11789;53.482;9.862;2022-08-23T06:03:37;12.00;12.00;9.50
23240;PMS7003;11789;53.482;9.862;2022-08-23T06:06:02;14.00;13.00;11.25
23240;PMS7003;11789;53.482;9.862;2022-08-23T06:08:29;13.00;13.00;11.50
23240;PMS7003;11789;53.482;9.862;2022-08-23T06:11:28;13.50;13.50;10.50
23240;PMS7003;11789;53.482;9.862;2022-08-23T06:13:53;13.00;12.00;10.00
23240;PMS7003;11789;53.482;9.862;2022-08-23T06:16:24;17.00;12.75;10.00
23240;PMS7003;11789;53.482;9.862;2022-08-23T06:18:52;14.75;14.75;12.50
23240;PMS7003;11789;53.482;9.862;2022-08-23T06:21:20;14.00;14.00;11.50
23240;PMS7003;11789;53.482;9.862;2022-08-23T06:23:46;15.75;14.25;11.25
23240;PMS7003;11789;53.482;9.862;2022-08-23T06:26:20;10.75;10.75;9.50
23240;PMS7003;11789;53.482;9.862;2022-08-23T06:28:49;13.25;12.25;10.50
23240;PMS7003;11789;53.482;9.862;2022-08-23T06:31:18;15.00;14.00;11.25
23240;PMS7003;11789;53.482;9.862;2022-08-23T06:34:06;12.00;12.00;10.50
23240;PMS7003;11789;53.482;9.862;2022-08-23T06:36:32;11.25;11.25;9.50
23240;PMS7003;11789;53.482;9.862;2022-08-23T06:38:58;12.25;11.75;10.00
23240;PMS7003;11789;53.482;9.862;2022-08-23T06:41:24;13.25;12.50;10.50
23240;PMS7003;11789;53.482;9.862;2022-08-23T06:46:46;16.25;12.75;11.25
23240;PMS7003;11789;53.482;9.862;2022-08-23T06:49:13;10.75;10.75;9.00
23240;PMS7003;11789;53.482;9.862;2022-08-23T06:51:40;12.75;12.75;11.50
23240;PMS7003;11789;53.482;9.862;2022-08-23T06:54:09;11.75;11.75;10.25
23240;PMS7003;11789;53.482;9.862;2022-08-23T06:56:36;14.75;12.25;10.00
23240;PMS7003;11789;53.482;9.862;2022-08-23T06:59:03;13.75;12.50;9.50
23240;PMS7003;11789;53.482;9.862;2022-08-23T07:04:11;11.25;11.25;8.25
23240;PMS7003;11789;53.482;9.862;2022-08-23T07:06:38;11.50;11.50;9.00
23240;PMS7003;11789;53.482;9.862;2022-08-23T07:09:05;11.50;11.50;9.25
23240;PMS7003;11789;53.482;9.862;2022-08-23T07:11:31;12.00;12.00;9.25
23240;PMS7003;11789;53.482;9.862;2022-08-23T07:14:00;12.25;11.75;10.00
23240;PMS7003;11789;53.482;9.862;2022-08-23T07:16:33;12.50;11.75;9.00
23240;PMS7003;11789;53.482;9.862;2022-08-23T07:19:00;13.25;12.75;10.00
23240;PMS7003;11789;53.482;9.862;2022-08-23T07:21:26;13.00;8.25;8.00
23240;PMS7003;11789;53.482;9.862;2022-08-23T07:23:51;12.25;12.25;10.75
23240;PMS7003;11789;53.482;9.862;2022-08-23T07:26:17;11.75;10.00;9.00
23240;PMS7003;11789;53.482;9.862;2022-08-23T07:28:43;13.50;11.75;9.75
23240;PMS7003;11789;53.482;9.862;2022-08-23T07:31:14;13.25;12.25;10.00
23240;PMS7003;11789;53.482;9.862;2022-08-23T07:33:45;11.00;11.00;9.25
23240;PMS7003;11789;53.482;9.862;2022-08-23T07:36:12;10.75;10.75;9.00
23240;PMS7003;11789;53.482;9.862;2022-08-23T07:38:41;10.25;10.25;8.75
23240;PMS7003;11789;53.482;9.862;2022-08-23T07:41:08;12.75;10.75;9.00
23240;PMS7003;11789;53.482;9.862;2022-08-23T07:43:33;11.75;10.25;9.25
23240;PMS7003;11789;53.482;9.862;2022-08-23T07:46:00;12.50;11.00;8.50
23240;PMS7003;11789;53.482;9.862;2022-08-23T07:48:27;12.67;10.00;9.00
23240;PMS7003;11789;53.482;9.862;2022-08-23T07:50:55;11.00;9.75;8.00
23240;PMS7003;11789;53.482;9.862;2022-08-23T07:53:23;12.00;12.00;9.00
23240;PMS7003;11789;53.482;9.862;2022-08-23T07:55:49;10.67;9.33;7.00
23240;PMS7003;11789;53.482;9.862;2022-08-23T07:58:16;9.00;9.00;7.33
23240;PMS7003;11789;53.482;9.862;2022-08-23T08:00:41;9.00;8.00;6.00
23240;PMS7003;11789;53.482;9.862;2022-08-23T08:03:07;9.00;9.00;7.33
23240;PMS7003;11789;53.482;9.862;2022-08-23T08:05:34;8.67;8.67;7.33
23240;PMS7003;11789;53.482;9.862;2022-08-23T08:08:00;10.00;8.33;7.00
23240;PMS7003;11789;53.482;9.862;2022-08-23T08:10:27;10.00;9.00;7.00
23240;PMS7003;11789;53.482;9.862;2022-08-23T08:12:52;11.00;10.00;8.00
23240;PMS7003;11789;53.482;9.862;2022-08-23T08:15:18;11.67;8.33;7.00
23240;PMS7003;11789;53.482;9.862;2022-08-23T08:17:47;7.00;7.00;6.00
23240;PMS7003;11789;53.482;9.862;2022-08-23T08:20:13;9.00;9.00;7.00
23240;PMS7003;11789;53.482;9.862;2022-08-23T08:22:39;6.00;6.00;6.00
23240;PMS7003;11789;53.482;9.862;2022-08-23T08:25:06;7.33;7.33;6.33
23240;PMS7003;11789;53.482;9.862;2022-08-23T08:27:32;9.00;7.67;7.00
23240;PMS7003;11789;53.482;9.862;2022-08-23T08:29:57;8.33;8.33;7.00
23240;PMS7003;11789;53.482;9.862;2022-08-23T08:32:28;10.67;10.00;8.33
23240;PMS7003;11789;53.482;9.862;2022-08-23T08:34:53;11.33;7.33;6.33
23240;PMS7003;11789;53.482;9.862;2022-08-23T08:37:19;8.00;8.00;7.00
23240;PMS7003;11789;53.482;9.862;2022-08-23T08:39:44;10.00;10.00;7.33
23240;PMS7003;11789;53.482;9.862;2022-08-23T08:44:57;9.67;9.67;8.00
23240;PMS7003;11789;53.482;9.862;2022-08-23T08:47:34;7.25;7.25;6.00
23240;PMS7003;11789;53.482;9.862;2022-08-23T08:52:48;7.75;7.75;6.75
23240;PMS7003;11789;53.482;9.862;2022-08-23T08:55:22;9.00;9.00;7.00
23240;PMS7003;11789;53.482;9.862;2022-08-23T08:57:50;8.00;7.00;6.00
23240;PMS7003;11789;53.482;9.862;2022-08-23T09:08:52;9.67;7.67;6.33
23240;PMS7003;11789;53.482;9.862;2022-08-23T09:11:24;6.50;5.00;4.25
23240;PMS7003;11789;53.482;9.862;2022-08-23T09:17:25;8.67;7.33;6.33
23240;PMS7003;11789;53.482;9.862;2022-08-23T09:19:59;6.50;6.50;6.00
23240;PMS7003;11789;53.482;9.862;2022-08-23T09:22:33;8.50;8.00;7.00
23240;PMS7003;11789;53.482;9.862;2022-08-23T09:25:07;7.50;7.50;6.00
23240;PMS7003;11789;53.482;9.862;2022-08-23T09:27:39;7.75;6.00;6.00
23240;PMS7003;11789;53.482;9.862;2022-08-23T09:30:08;8.50;8.50;6.75
23240;PMS7003;11789;53.482;9.862;2022-08-23T09:32:36;7.00;7.00;6.00
23240;PMS7003;11789;53.482;9.862;2022-08-23T09:35:13;8.00;8.00;7.00
23240;PMS7003;11789;53.482;9.862;2022-08-23T09:40:26;7.00;7.00;6.75
23240;PMS7003;11789;53.482;9.862;2022-08-23T09:43:21;8.50;8.50;7.00
23240;PMS7003;11789;53.482;9.862;2022-08-23T09:48:35;9.00;9.00;7.33
23240;PMS7003;11789;53.482;9.862;2022-08-23T09:54:01;3.75;3.75;3.00
23240;PMS7003;11789;53.482;9.862;2022-08-23T09:56:38;5.75;5.75;5.00
23240;PMS7003;11789;53.482;9.862;2022-08-23T10:02:13;7.25;6.00;5.00
23240;PMS7003;11789;53.482;9.862;2022-08-23T10:07:20;6.25;6.25;5.25
23240;PMS7003;11789;53.482;9.862;2022-08-23T10:10:14;8.00;6.50;6.00
23240;PMS7003;11789;53.482;9.862;2022-08-23T10:12:47;6.50;6.00;5.75
23240;PMS7003;11789;53.482;9.862;2022-08-23T10:15:13;6.25;6.25;5.00
23240;PMS7003;11789;53.482;9.862;2022-08-23T10:17:49;7.33;6.33;5.67
23240;PMS7003;11789;53.482;9.862;2022-08-23T10:23:01;5.25;5.25;5.00
23240;PMS7003;11789;53.482;9.862;2022-08-23T10:28:31;6.00;4.75;4.50
23240;PMS7003;11789;53.482;9.862;2022-08-23T10:31:41;5.00;4.75;4.00
23240;PMS7003;11789;53.482;9.862;2022-08-23T10:42:39;4.00;4.00;4.00
23240;PMS7003;11789;53.482;9.862;2022-08-23T10:45:24;5.50;5.50;5.00
23240;PMS7003;11789;53.482;9.862;2022-08-23T10:50:40;3.00;3.00;2.50
23240;PMS7003;11789;53.482;9.862;2022-08-23T10:53:19;6.25;4.00;3.00
23240;PMS7003;11789;53.482;9.862;2022-08-23T10:58:38;5.25;4.25;3.75
23240;PMS7003;11789;53.482;9.862;2022-08-23T11:01:10;4.00;4.00;3.00
23240;PMS7003;11789;53.482;9.862;2022-08-23T11:09:01;3.75;3.75;3.25
23240;PMS7003;11789;53.482;9.862;2022-08-23T11:14:27;4.25;4.25;3.25
23240;PMS7003;11789;53.482;9.862;2022-08-23T11:17:07;2.00;2.00;1.75
23240;PMS7003;11789;53.482;9.862;2022-08-23T11:24:48;3.00;3.00;2.75
23240;PMS7003;11789;53.482;9.862;2022-08-23T11:27:36;2.00;2.00;2.00
23240;PMS7003;11789;53.482;9.862;2022-08-23T11:30:38;3.00;3.00;2.50
23240;PMS7003;11789;53.482;9.862;2022-08-23T11:32:58;2.00;2.00;1.75
23240;PMS7003;11789;53.482;9.862;2022-08-23T11:35:37;3.50;3.50;3.00
23240;PMS7003;11789;53.482;9.862;2022-08-23T11:38:07;3.00;3.00;2.00
23240;PMS7003;11789;53.482;9.862;2022-08-23T11:40:37;3.00;3.00;3.00
23240;PMS7003;11789;53.482;9.862;2022-08-23T11:43:12;2.00;2.00;2.00
23240;PMS7003;11789;53.482;9.862;2022-08-23T11:45:50;2.50;2.50;2.00
23240;PMS7003;11789;53.482;9.862;2022-08-23T11:48:17;3.00;3.00;3.00
23240;PMS7003;11789;53.482;9.862;2022-08-23T11:59:02;3.75;3.75;3.25
23240;PMS7003;11789;53.482;9.862;2022-08-23T12:01:54;5.50;4.00;3.50
23240;PMS7003;11789;53.482;9.862;2022-08-23T12:04:36;4.25;3.00;2.25
23240;PMS7003;11789;53.482;9.862;2022-08-23T12:07:11;3.00;3.00;2.25
23240;PMS7003;11789;53.482;9.862;2022-08-23T12:19:38;3.75;3.75;3.25
23240;PMS7003;11789;53.482;9.862;2022-08-23T12:22:10;3.00;3.00;3.00
23240;PMS7003;11789;53.482;9.862;2022-08-23T12:24:52;4.00;3.75;3.00
23240;PMS7003;11789;53.482;9.862;2022-08-23T12:27:25;4.50;3.00;3.00
23240;PMS7003;11789;53.482;9.862;2022-08-23T12:32:43;3.50;2.00;2.00
23240;PMS7003;11789;53.482;9.862;2022-08-23T12:35:17;2.00;2.00;1.25
23240;PMS7003;11789;53.482;9.862;2022-08-23T12:40:46;2.00;2.00;2.00
23240;PMS7003;11789;53.482;9.862;2022-08-23T12:43:18;2.50;2.50;2.25
23240;PMS7003;11789;53.482;9.862;2022-08-23T12:45:50;2.50;2.50;2.50
23240;PMS7003;11789;53.482;9.862;2022-08-23T12:48:24;3.50;2.25;2.00
23240;PMS7003;11789;53.482;9.862;2022-08-23T12:51:02;2.00;2.00;2.00
23240;PMS7003;11789;53.482;9.862;2022-08-23T12:53:50;1.00;1.00;1.00
23240;PMS7003;11789;53.482;9.862;2022-08-23T12:56:17;2.00;1.00;1.00
23240;PMS7003;11789;53.482;9.862;2022-08-23T12:58:47;1.75;1.75;1.75
23240;PMS7003;11789;53.482;9.862;2022-08-23T13:01:18;2.50;2.50;2.50
23240;PMS7003;11789;53.482;9.862;2022-08-23T13:03:54;3.00;3.00;2.00
23240;PMS7003;11789;53.482;9.862;2022-08-23T13:06:28;4.00;2.25;2.00
23240;PMS7003;11789;53.482;9.862;2022-08-23T13:11:38;2.00;2.00;1.50
23240;PMS7003;11789;53.482;9.862;2022-08-23T13:19:52;3.00;2.00;1.75
23240;PMS7003;11789;53.482;9.862;2022-08-23T13:22:35;2.00;2.00;2.00
23240;PMS7003;11789;53.482;9.862;2022-08-23T13:25:06;2.00;2.00;1.50
23240;PMS7003;11789;53.482;9.862;2022-08-23T13:27:35;4.00;4.00;3.00
23240;PMS7003;11789;53.482;9.862;2022-08-23T13:32:43;2.50;2.50;2.00
23240;PMS7003;11789;53.482;9.862;2022-08-23T13:43:47;3.00;3.00;3.00
23240;PMS7003;11789;53.482;9.862;2022-08-23T13:46:26;2.50;2.50;2.00
23240;PMS7003;11789;53.482;9.862;2022-08-23T13:48:59;2.00;2.00;2.00
23240;PMS7003;11789;53.482;9.862;2022-08-23T13:51:29;2.00;2.00;2.00
23240;PMS7003;11789;53.482;9.862;2022-08-23T13:53:58;2.75;2.75;2.00
23240;PMS7003;11789;53.482;9.862;2022-08-23T13:56:27;2.00;2.00;2.00
23240;PMS7003;11789;53.482;9.862;2022-08-23T13:59:00;2.00;2.00;2.00
23240;PMS7003;11789;53.482;9.862;2022-08-23T14:01:29;2.00;2.00;2.00
23240;PMS7003;11789;53.482;9.862;2022-08-23T14:03:55;2.33;2.00;2.00
23240;PMS7003;11789;53.482;9.862;2022-08-23T14:06:21;3.33;2.00;2.00
23240;PMS7003;11789;53.482;9.862;2022-08-23T14:08:47;3.00;3.00;3.00
23240;PMS7003;11789;53.482;9.862;2022-08-23T14:11:13;2.67;2.67;2.00
23240;PMS7003;11789;53.482;9.862;2022-08-23T14:13:46;4.00;2.00;1.75
23240;PMS7003;11789;53.482;9.862;2022-08-23T14:16:14;2.25;2.25;2.00
23240;PMS7003;11789;53.482;9.862;2022-08-23T14:18:45;3.50;3.50;3.00
23240;PMS7003;11789;53.482;9.862;2022-08-23T14:21:10;2.33;2.33;2.00
23240;PMS7003;11789;53.482;9.862;2022-08-23T14:23:36;2.00;2.00;2.00
23240;PMS7003;11789;53.482;9.862;2022-08-23T14:26:01;2.00;2.00;2.00
23240;PMS7003;11789;53.482;9.862;2022-08-23T14:28:27;5.00;3.00;3.00
23240;PMS7003;11789;53.482;9.862;2022-08-23T14:30:54;2.00;2.00;2.00
23240;PMS7003;11789;53.482;9.862;2022-08-23T14:33:20;2.50;2.50;1.75
23240;PMS7003;11789;53.482;9.862;2022-08-23T14:35:46;4.00;2.00;2.00
23240;PMS7003;11789;53.482;9.862;2022-08-23T14:38:12;3.75;2.50;2.00
23240;PMS7003;11789;53.482;9.862;2022-08-23T14:40:39;3.00;3.00;2.00
23240;PMS7003;11789;53.482;9.862;2022-08-23T14:43:11;3.00;3.00;3.00
23240;PMS7003;11789;53.482;9.862;2022-08-23T14:45:36;3.00;3.00;2.00
23240;PMS7003;11789;53.482;9.862;2022-08-23T14:48:02;2.00;2.00;1.67
23240;PMS7003;11789;53.482;9.862;2022-08-23T14:50:28;3.00;3.00;3.00
23240;PMS7003;11789;53.482;9.862;2022-08-23T14:52:54;2.00;2.00;2.00
23240;PMS7003;11789;53.482;9.862;2022-08-23T14:55:20;3.00;3.00;2.00
23240;PMS7003;11789;53.482;9.862;2022-08-23T14:57:45;2.00;2.00;2.00
23240;PMS7003;11789;53.482;9.862;2022-08-23T15:00:13;2.00;2.00;2.00
23240;PMS7003;11789;53.482;9.862;2022-08-23T15:02:43;2.50;2.50;2.00
23240;PMS7003;11789;53.482;9.862;2022-08-23T15:05:10;4.25;3.50;3.00
23240;PMS7003;11789;53.482;9.862;2022-08-23T15:07:38;4.25;2.50;2.00
23240;PMS7003;11789;53.482;9.862;2022-08-23T15:10:04;3.00;3.00;2.67
23240;PMS7003;11789;53.482;9.862;2022-08-23T15:12:30;3.25;3.00;2.25
23240;PMS7003;11789;53.482;9.862;2022-08-23T15:14:55;3.67;3.67;3.00
23240;PMS7003;11789;53.482;9.862;2022-08-23T15:17:21;3.00;3.00;3.00
23240;PMS7003;11789;53.482;9.862;2022-08-23T15:19:58;3.00;3.00;3.00
23240;PMS7003;11789;53.482;9.862;2022-08-23T15:22:24;3.50;3.00;3.00
23240;PMS7003;11789;53.482;9.862;2022-08-23T15:24:50;3.67;3.67;3.33
23240;PMS7003;11789;53.482;9.862;2022-08-23T15:27:16;4.33;3.00;3.00
23240;PMS7003;11789;53.482;9.862;2022-08-23T15:29:42;4.00;4.00;3.75
23240;PMS7003;11789;53.482;9.862;2022-08-23T15:32:08;4.00;2.00;2.00
23240;PMS7003;11789;53.482;9.862;2022-08-23T15:34:33;3.00;3.00;3.00
23240;PMS7003;11789;53.482;9.862;2022-08-23T15:36:58;2.67;2.67;2.33
23240;PMS7003;11789;53.482;9.862;2022-08-23T15:39:24;3.67;3.67;2.67
23240;PMS7003;11789;53.482;9.862;2022-08-23T15:41:49;2.00;2.00;2.00
23240;PMS7003;11789;53.482;9.862;2022-08-23T15:44:16;3.25;3.00;2.75
23240;PMS7003;11789;53.482;9.862;2022-08-23T15:46:43;3.67;3.67;3.00
23240;PMS7003;11789;53.482;9.862;2022-08-23T15:49:11;2.00;2.00;2.00
23240;PMS7003;11789;53.482;9.862;2022-08-23T15:51:39;3.75;3.75;2.75
23240;PMS7003;11789;53.482;9.862;2022-08-23T15:54:06;3.75;3.75;3.50
23240;PMS7003;11789;53.482;9.862;2022-08-23T15:56:34;3.00;3.00;3.00
23240;PMS7003;11789;53.482;9.862;2022-08-23T15:59:03;3.00;3.00;3.00
23240;PMS7003;11789;53.482;9.862;2022-08-23T16:01:29;2.50;2.00;2.00
23240;PMS7003;11789;53.482;9.862;2022-08-23T16:03:58;3.50;3.00;2.50
23240;PMS7003;11789;53.482;9.862;2022-08-23T16:06:24;78.00;66.00;41.25
23240;PMS7003;11789;53.482;9.862;2022-08-23T16:08:50;15.67;14.67;10.00
23240;PMS7003;11789;53.482;9.862;2022-08-23T16:11:17;5.75;5.75;5.00
23240;PMS7003;11789;53.482;9.862;2022-08-23T16:13:44;9.00;8.00;6.25
23240;PMS7003;11789;53.482;9.862;2022-08-23T16:16:21;4.25;3.75;3.00
23240;PMS7003;11789;53.482;9.862;2022-08-23T16:18:49;10.75;9.25;6.75
23240;PMS7003;11789;53.482;9.862;2022-08-23T16:21:17;4.00;3.25;3.00
23240;PMS7003;11789;53.482;9.862;2022-08-23T16:23:43;5.00;3.25;3.00
23240;PMS7003;11789;53.482;9.862;2022-08-23T16:26:10;3.00;3.00;3.00
23240;PMS7003;11789;53.482;9.862;2022-08-23T16:28:39;3.00;3.00;3.00
23240;PMS7003;11789;53.482;9.862;2022-08-23T16:31:05;3.00;3.00;3.00
23240;PMS7003;11789;53.482;9.862;2022-08-23T16:33:30;4.67;3.00;2.67